Time;durP1;ratioP1;P1;durP2;ratioP2;P2;SDS_P1;SDS_P2;PMS_P1;PMS_P2;Temp;Humidity;BMP_temperature;BMP_pressure;BME280_temperature;BME280_humidity;BME280_pressure;Samples;Min_cycle;Max_cycle;Signal;HPM_P1;HPM_P2
2023/07/22 00:01:48;;;;;;;2.60;2.10;;;;;;;16.77;100.00;97372.66;1224865;75;2921104;-72
2023/07/22 00:04:20;;;;;;;3.35;2.65;;;;;;;16.54;100.00;97372.97;1223112;75;2920319;-68
2023/07/22 00:06:53;;;;;;;1.80;1.70;;;;;;;16.57;100.00;97371.16;1223938;75;2925631;-65
2023/07/22 00:09:25;;;;;;;3.80;3.30;;;;;;;16.34;100.00;97374.25;1223918;75;2926306;-70
2023/07/22 00:11:58;;;;;;;3.45;2.90;;;;;;;16.36;100.00;97387.53;1224598;75;2922957;-66
2023/07/22 00:14:33;;;;;;;4.20;3.15;;;;;;;16.39;100.00;97394.78;1224514;75;2929457;-66
2023/07/22 00:17:06;;;;;;;3.80;3.20;;;;;;;16.41;100.00;97406.06;1224150;75;2934766;-65
2023/07/22 00:19:39;;;;;;;3.00;2.75;;;;;;;16.37;100.00;97417.38;1224614;75;2922838;-68
2023/07/22 00:22:11;;;;;;;4.75;3.00;;;;;;;16.28;100.00;97419.75;1224555;75;2924911;-71
2023/07/22 00:24:44;;;;;;;3.65;2.50;;;;;;;16.50;100.00;97413.22;1224946;75;2926826;-65
2023/07/22 00:27:16;;;;;;;3.40;2.15;;;;;;;16.45;100.00;97412.03;1224151;75;2923317;-66
2023/07/22 00:29:52;;;;;;;2.55;2.20;;;;;;;16.28;100.00;97414.97;1223884;75;2934115;-66
2023/07/22 00:32:25;;;;;;;2.10;1.90;;;;;;;16.32;100.00;97412.69;1223210;75;2921980;-68
2023/07/22 00:34:57;;;;;;;1.95;1.75;;;;;;;16.27;100.00;97424.56;1223754;75;2933796;-68
2023/07/22 00:37:30;;;;;;;1.90;1.60;;;;;;;16.24;100.00;97424.84;1223956;75;2925350;-70
2023/07/22 00:40:05;;;;;;;1.60;1.50;;;;;;;16.28;100.00;97439.09;1224235;75;2942361;-68
2023/07/22 00:42:38;;;;;;;1.90;1.70;;;;;;;16.18;100.00;97447.75;1223598;75;2929223;-68
2023/07/22 00:45:14;;;;;;;2.65;1.70;;;;;;;16.26;100.00;97444.41;1224243;75;2925826;-70
2023/07/22 00:47:48;;;;;;;1.80;1.70;;;;;;;16.25;100.00;97434.63;1223891;75;2924469;-69
2023/07/22 00:50:21;;;;;;;1.75;1.65;;;;;;;16.21;100.00;97429.41;1224142;75;2930200;-65
2023/07/22 00:52:54;;;;;;;1.75;1.65;;;;;;;16.14;100.00;97424.47;1224335;75;2924582;-66
2023/07/22 00:55:28;;;;;;;1.85;1.60;;;;;;;16.22;100.00;97441.19;1224107;75;2935129;-69
2023/07/22 00:58:01;;;;;;;2.95;2.10;;;;;;;15.92;100.00;97453.81;1224371;75;2948034;-66
2023/07/22 01:00:36;;;;;;;2.80;2.55;;;;;;;15.65;100.00;97455.50;1224055;75;2929952;-68
2023/07/22 01:03:09;;;;;;;3.75;2.50;;;;;;;15.55;100.00;97440.56;1224261;75;2926765;-67
2023/07/22 01:05:42;;;;;;;3.70;2.95;;;;;;;15.50;100.00;97450.38;1224680;75;2937530;-71
2023/07/22 01:08:15;;;;;;;6.35;3.65;;;;;;;15.40;100.00;97453.97;1223795;75;2929496;-70
2023/07/22 01:10:48;;;;;;;5.15;4.45;;;;;;;15.26;100.00;97453.06;1224884;75;2907814;-69
2023/07/22 01:13:20;;;;;;;7.10;4.50;;;;;;;15.32;100.00;97457.28;1223882;75;2927970;-68
2023/07/22 01:15:56;;;;;;;6.85;5.15;;;;;;;15.52;100.00;97463.66;1224134;75;2928554;-66
2023/07/22 01:18:29;;;;;;;3.85;3.00;;;;;;;15.82;100.00;97462.94;1224150;75;2926834;-67
2023/07/22 01:21:02;;;;;;;2.65;2.35;;;;;;;15.82;100.00;97468.44;1224808;75;2921117;-69
2023/07/22 01:23:38;;;;;;;2.80;2.10;;;;;;;15.95;100.00;97469.31;1223610;75;2923600;-65
2023/07/22 01:26:10;;;;;;;1.60;1.50;;;;;;;16.00;100.00;97467.03;1223874;75;2923382;-68
2023/07/22 01:28:43;;;;;;;1.90;1.55;;;;;;;16.01;100.00;97452.69;1224415;75;2931594;-67
2023/07/22 01:31:16;;;;;;;2.00;1.70;;;;;;;15.88;100.00;97456.09;1224894;75;2940658;-67
2023/07/22 01:33:48;;;;;;;3.55;1.60;;;;;;;15.67;100.00;97463.28;1224173;75;2928145;-69
2023/07/22 01:36:21;;;;;;;2.00;1.80;;;;;;;15.67;100.00;97461.28;1224518;75;2919764;-68
2023/07/22 01:38:56;;;;;;;2.05;1.50;;;;;;;15.74;100.00;97463.50;1224773;75;2918656;-69
2023/07/22 01:41:29;;;;;;;1.70;1.60;;;;;;;15.80;100.00;97465.44;1225480;75;2929584;-67
2023/07/22 01:44:01;;;;;;;1.60;1.40;;;;;;;15.80;100.00;97466.19;1224461;75;2932495;-65
2023/07/22 01:46:34;;;;;;;2.35;1.50;;;;;;;15.76;100.00;97474.03;1224595;75;2930531;-67
2023/07/22 01:49:10;;;;;;;2.70;2.45;;;;;;;15.52;100.00;97464.41;1223242;75;2941703;-66
2023/07/22 01:51:43;;;;;;;3.55;2.80;;;;;;;15.45;100.00;97476.00;1224475;75;2923249;-67
2023/07/22 01:54:18;;;;;;;4.35;3.35;;;;;;;15.60;100.00;97475.63;1224053;75;2939951;-67
2023/07/22 01:56:51;;;;;;;3.85;2.80;;;;;;;15.66;100.00;97495.66;1223862;75;2923435;-67
2023/07/22 01:59:24;;;;;;;3.80;3.40;;;;;;;15.23;100.00;97498.22;1224284;75;2938256;-64
2023/07/22 02:01:57;;;;;;;5.75;4.00;;;;;;;15.12;100.00;97507.31;1223150;75;2947300;-68
2023/07/22 02:04:29;;;;;;;3.75;3.30;;;;;;;15.17;100.00;97512.03;1223376;75;2934037;-66
2023/07/22 02:07:02;;;;;;;3.00;2.70;;;;;;;15.45;100.00;97522.16;1223394;75;2932139;-66
2023/07/22 02:09:38;;;;;;;2.60;2.40;;;;;;;15.36;100.00;97516.94;1223043;75;2921713;-66
2023/07/22 02:12:11;;;;;;;6.35;3.60;;;;;;;15.01;100.00;97519.16;1222949;75;2921092;-68
2023/07/22 02:14:44;;;;;;;3.95;3.10;;;;;;;15.10;100.00;97523.59;1224218;75;2923358;-65
2023/07/22 02:17:16;;;;;;;4.15;2.75;;;;;;;15.01;100.00;97532.94;1223173;75;2953208;-68
2023/07/22 02:19:49;;;;;;;2.50;2.30;;;;;;;15.30;100.00;97530.78;1223919;75;2923466;-67
2023/07/22 02:22:22;;;;;;;2.15;1.95;;;;;;;15.47;100.00;97528.66;1223853;75;2921596;-69
2023/07/22 02:24:57;;;;;;;1.60;1.50;;;;;;;15.45;100.00;97522.91;1223694;75;2929549;-68
2023/07/22 02:27:30;;;;;;;1.75;1.50;;;;;;;15.30;100.00;97522.50;1222899;75;2927034;-66
2023/07/22 02:30:04;;;;;;;2.35;1.55;;;;;;;15.51;100.00;97528.38;1223863;75;2933280;-67
2023/07/22 02:32:36;;;;;;;1.65;1.50;;;;;;;15.61;100.00;97523.28;1223670;67;2928725;-67
2023/07/22 02:35:11;;;;;;;1.75;1.50;;;;;;;15.49;100.00;97519.84;1223580;75;2920896;-69
2023/07/22 02:37:43;;;;;;;1.50;1.40;;;;;;;15.58;100.00;97525.06;1224493;75;2921395;-70
2023/07/22 02:40:19;;;;;;;2.15;1.20;;;;;;;15.59;100.00;97526.56;1223854;75;2924318;-66
2023/07/22 02:42:51;;;;;;;1.80;1.70;;;;;;;15.43;100.00;97532.94;1223840;75;2926018;-68
2023/07/22 02:45:24;;;;;;;1.65;1.40;;;;;;;15.52;100.00;97535.41;1223673;75;2944377;-66
2023/07/22 02:47:56;;;;;;;1.85;1.75;;;;;;;15.51;100.00;97534.66;1224435;75;2935922;-64
2023/07/22 02:50:29;;;;;;;2.45;1.30;;;;;;;15.50;100.00;97544.19;1224655;75;2920315;-66
2023/07/22 02:53:02;;;;;;;1.50;1.40;;;;;;;15.29;100.00;97541.03;1224600;75;2932546;-65
2023/07/22 02:55:37;;;;;;;1.55;1.45;;;;;;;15.43;100.00;97546.75;1224070;75;2929547;-68
2023/07/22 02:58:10;;;;;;;1.40;1.30;;;;;;;15.34;100.00;97554.06;1224009;75;2924572;-68
2023/07/22 03:00:43;;;;;;;1.45;1.35;;;;;;;15.47;100.00;97549.97;1224366;75;2919734;-66
2023/07/22 03:03:16;;;;;;;1.50;1.40;;;;;;;15.26;100.00;97555.84;1224272;75;2930293;-69
2023/07/22 03:05:48;;;;;;;2.00;1.50;;;;;;;15.33;100.00;97558.06;1224557;75;2930260;-67
2023/07/22 03:08:22;;;;;;;1.40;1.30;;;;;;;15.40;100.00;97562.31;1224572;75;2922901;-68
2023/07/22 03:10:57;;;;;;;1.20;1.00;;;;;;;15.32;100.00;97562.09;1224548;75;2929652;-66
2023/07/22 03:13:30;;;;;;;1.40;1.30;;;;;;;15.19;100.00;97561.16;1224354;75;2923044;-66
2023/07/22 03:16:03;;;;;;;3.25;1.60;;;;;;;15.17;100.00;97563.69;1224629;75;2923302;-69
2023/07/22 03:18:36;;;;;;;3.70;1.70;;;;;;;15.18;100.00;97570.72;1223553;75;2926741;-69
2023/07/22 03:21:09;;;;;;;2.35;1.70;;;;;;;15.21;100.00;97573.19;1223903;75;2926673;-67
2023/07/22 03:23:42;;;;;;;1.75;1.45;;;;;;;15.11;100.00;97572.00;1223724;75;2918302;-66
2023/07/22 03:26:17;;;;;;;2.25;1.60;;;;;;;15.14;100.00;97573.72;1224050;75;2933384;-69
2023/07/22 03:28:49;;;;;;;1.95;1.70;;;;;;;15.24;100.00;97565.91;1223887;75;2925670;-67
2023/07/22 03:31:22;;;;;;;1.80;1.50;;;;;;;15.28;100.00;97567.13;1223803;75;2924905;-65
2023/07/22 03:33:55;;;;;;;2.05;1.20;;;;;;;15.37;100.00;97570.84;1224097;75;2928590;-70
2023/07/22 03:36:28;;;;;;;1.70;1.45;;;;;;;15.06;100.00;97565.25;1223753;75;2927564;-69
2023/07/22 03:39:00;;;;;;;1.55;1.45;;;;;;;15.27;100.00;97568.41;1222121;75;2924184;-67
2023/07/22 03:41:36;;;;;;;1.70;1.60;;;;;;;15.29;100.00;97565.88;1224245;75;2924030;-65
2023/07/22 03:44:08;;;;;;;2.70;1.90;;;;;;;15.07;100.00;97566.72;1224229;75;2930406;-66
2023/07/22 03:46:41;;;;;;;1.30;1.20;;;;;;;15.20;100.00;97570.94;1224376;75;2937275;-65
2023/07/22 03:49:13;;;;;;;1.85;1.50;;;;;;;15.12;100.00;97570.72;1224379;75;2927317;-67
2023/07/22 03:51:46;;;;;;;1.50;1.40;;;;;;;15.27;100.00;97573.16;1224096;75;2937208;-64
2023/07/22 03:54:19;;;;;;;2.25;1.40;;;;;;;15.30;100.00;97581.16;1224848;75;2938232;-68
2023/07/22 03:56:54;;;;;;;1.70;1.60;;;;;;;14.99;100.00;97571.28;1224326;75;2916144;-66
2023/07/22 03:59:28;;;;;;;3.80;2.05;;;;;;;15.09;100.00;97566.22;1224492;75;2922568;-66
2023/07/22 04:02:01;;;;;;;2.95;1.70;;;;;;;15.34;100.00;97576.13;1224325;75;2932363;-70
2023/07/22 04:04:33;;;;;;;2.55;1.85;;;;;;;15.32;100.00;97578.66;1224631;75;2924987;-67
2023/07/22 04:07:08;;;;;;;2.50;1.50;;;;;;;15.39;100.00;97582.84;1223234;75;2927286;-66
2023/07/22 04:09:40;;;;;;;2.45;1.65;;;;;;;15.47;100.00;97588.59;1224464;75;2928480;-69
2023/07/22 04:12:16;;;;;;;2.10;1.90;;;;;;;15.29;100.00;97589.94;1224630;75;2923519;-64
2023/07/22 04:14:48;;;;;;;2.20;2.00;;;;;;;15.47;100.00;97594.88;1224612;75;2931775;-68
2023/07/22 04:17:21;;;;;;;3.15;1.80;;;;;;;15.55;100.00;97601.31;1224529;75;2925123;-70
2023/07/22 04:19:55;;;;;;;4.35;2.60;;;;;;;15.50;100.00;97598.59;1224563;75;2928670;-71
2023/07/22 04:22:28;;;;;;;4.90;3.00;;;;;;;15.41;100.00;97596.16;1224617;75;2924803;-65
2023/07/22 04:25:01;;;;;;;4.25;3.85;;;;;;;15.44;100.00;97595.13;1225432;75;2927702;-70
2023/07/22 04:27:36;;;;;;;3.10;2.80;;;;;;;15.73;100.00;97604.78;1224469;75;2927105;-68
2023/07/22 04:30:11;;;;;;;2.80;2.55;;;;;;;15.76;100.00;97615.53;1223505;75;2935843;-69
2023/07/22 04:32:44;;;;;;;2.60;2.40;;;;;;;15.80;100.00;97612.47;1223785;75;2936103;-70
2023/07/22 04:35:17;;;;;;;4.10;3.15;;;;;;;15.88;100.00;97613.44;1223058;75;2927903;-69
2023/07/22 04:37:49;;;;;;;4.35;3.80;;;;;;;15.75;100.00;97611.28;1224042;75;2932755;-68
2023/07/22 04:40:22;;;;;;;6.50;3.80;;;;;;;15.66;100.00;97616.34;1224465;75;2920713;-69
2023/07/22 04:42:57;;;;;;;5.85;5.05;;;;;;;15.41;100.00;97618.97;1224313;75;2920667;-68
2023/07/22 04:45:30;;;;;;;4.20;3.80;;;;;;;15.89;100.00;97622.47;1224544;75;2924314;-68
2023/07/22 04:48:03;;;;;;;4.00;3.30;;;;;;;15.96;100.00;97622.66;1223910;75;2923018;-66
2023/07/22 04:50:35;;;;;;;4.50;3.15;;;;;;;15.85;100.00;97624.75;1223990;75;2925423;-67
2023/07/22 04:53:08;;;;;;;4.65;4.15;;;;;;;15.97;100.00;97618.66;1224162;75;2924181;-66
2023/07/22 04:55:41;;;;;;;3.60;3.30;;;;;;;15.95;100.00;97623.19;1223285;75;2952409;-67
2023/07/22 04:58:16;;;;;;;3.40;2.70;;;;;;;16.03;100.00;97617.88;1224411;75;2924512;-68
2023/07/22 05:00:49;;;;;;;3.15;2.85;;;;;;;16.14;100.00;97615.75;1223625;75;2930333;-64
2023/07/22 05:03:25;;;;;;;2.80;2.50;;;;;;;16.18;100.00;97612.72;1223973;75;2922594;-67
2023/07/22 05:05:57;;;;;;;2.30;2.10;;;;;;;16.29;100.00;97628.44;1224191;75;2922207;-71
2023/07/22 05:08:30;;;;;;;3.00;2.70;;;;;;;16.14;100.00;97629.56;1223796;75;2932286;-69
2023/07/22 05:11:02;;;;;;;4.25;3.85;;;;;;;16.12;100.00;97618.28;1224023;75;2920681;-69
2023/07/22 05:13:38;;;;;;;4.70;3.50;;;;;;;16.42;100.00;97630.59;1223809;75;2928537;-67
2023/07/22 05:16:10;;;;;;;3.65;3.25;;;;;;;16.37;100.00;97629.38;1223890;75;2927590;-68
2023/07/22 05:18:43;;;;;;;3.80;3.50;;;;;;;16.51;100.00;97628.25;1223319;75;2926000;-68
2023/07/22 05:21:15;;;;;;;3.15;2.70;;;;;;;16.74;100.00;97639.06;1222026;75;2929735;-70
2023/07/22 05:23:48;;;;;;;2.70;2.50;;;;;;;16.87;100.00;97639.22;1224136;75;2930728;-71
2023/07/22 05:26:21;;;;;;;2.30;2.00;;;;;;;17.00;100.00;97642.13;1223510;75;2922630;-67
2023/07/22 05:28:56;;;;;;;2.95;2.25;;;;;;;17.00;100.00;97653.19;1223697;75;2926390;-69
2023/07/22 05:31:29;;;;;;;2.40;2.20;;;;;;;16.84;100.00;97656.88;1223623;75;2927998;-75
2023/07/22 05:34:01;;;;;;;3.90;3.20;;;;;;;16.83;100.00;97649.81;1223938;75;2929240;-68
2023/07/22 05:36:35;;;;;;;3.85;2.30;;;;;;;17.25;100.00;97648.34;1223660;75;2931927;-69
2023/07/22 05:39:08;;;;;;;2.15;1.95;;;;;;;17.30;100.00;97648.81;1223435;75;2924530;-68
2023/07/22 05:41:40;;;;;;;1.70;1.60;;;;;;;17.46;100.00;97654.13;1224231;75;2923131;-68
2023/07/22 05:44:16;;;;;;;1.70;1.60;;;;;;;17.50;100.00;97642.75;1224077;75;2928022;-66
2023/07/22 05:46:48;;;;;;;1.70;1.60;;;;;;;17.46;100.00;97651.38;1222506;75;2996221;-68
2023/07/22 05:49:21;;;;;;;4.90;3.45;;;;;;;17.18;100.00;97650.97;1225322;75;2929051;-69
2023/07/22 05:51:54;;;;;;;3.50;2.85;;;;;;;17.17;100.00;97657.75;1224646;75;2920403;-69
2023/07/22 05:54:27;;;;;;;3.00;2.70;;;;;;;17.39;100.00;97653.97;1223808;75;2925334;-67
2023/07/22 05:56:59;;;;;;;3.45;3.05;;;;;;;17.50;100.00;97655.84;1223705;75;2923905;-69
2023/07/22 05:59:35;;;;;;;2.45;2.10;;;;;;;17.70;100.00;97657.34;1223503;75;2919369;-67
2023/07/22 06:02:10;;;;;;;2.80;2.20;;;;;;;17.84;100.00;97654.13;1223931;75;2944639;-68
2023/07/22 06:04:42;;;;;;;2.95;2.40;;;;;;;17.76;100.00;97653.22;1224104;75;2940970;-68
2023/07/22 06:07:16;;;;;;;3.25;2.40;;;;;;;17.61;100.00;97648.16;1224150;75;2926021;-68
2023/07/22 06:09:48;;;;;;;2.75;2.30;;;;;;;17.55;100.00;97649.50;1223158;75;2920986;-67
2023/07/22 06:12:21;;;;;;;3.70;2.50;;;;;;;17.53;100.00;97649.25;1224368;75;2931068;-69
2023/07/22 06:14:56;;;;;;;3.45;2.55;;;;;;;17.63;100.00;97647.59;1222961;75;2930192;-69
2023/07/22 06:17:29;;;;;;;3.35;2.60;;;;;;;17.90;100.00;97658.88;1223851;75;2928933;-70
2023/07/22 06:20:01;;;;;;;3.10;2.50;;;;;;;17.78;100.00;97656.22;1224274;75;2911955;-65
2023/07/22 06:22:34;;;;;;;2.60;2.25;;;;;;;17.99;100.00;97667.53;1224209;75;2921574;-70
2023/07/22 06:25:07;;;;;;;2.30;1.90;;;;;;;18.21;100.00;97671.25;1223045;75;2924031;-68
2023/07/22 06:27:41;;;;;;;2.20;1.90;;;;;;;18.43;100.00;97670.88;1223405;75;2922258;-69
2023/07/22 06:30:17;;;;;;;1.95;1.70;;;;;;;18.35;100.00;97663.69;1224139;75;2924353;-68
2023/07/22 06:32:49;;;;;;;1.90;1.70;;;;;;;18.47;100.00;97665.00;1223320;75;2927719;-68
2023/07/22 06:35:22;;;;;;;2.00;1.80;;;;;;;18.55;100.00;97673.47;1223911;75;2920998;-70
2023/07/22 06:37:55;;;;;;;1.95;1.55;;;;;;;18.80;100.00;97677.59;1223669;75;2921808;-68
2023/07/22 06:40:28;;;;;;;1.75;1.65;;;;;;;18.78;100.00;97684.94;1223807;75;2927934;-70
2023/07/22 06:43:01;;;;;;;1.95;1.60;;;;;;;18.89;100.00;97690.31;1223142;75;2927587;-70
2023/07/22 06:45:36;;;;;;;1.60;1.50;;;;;;;18.88;100.00;97694.34;1223820;75;2926893;-67
2023/07/22 06:48:09;;;;;;;2.00;1.40;;;;;;;18.97;100.00;97696.69;1223523;75;2949492;-69
2023/07/22 06:50:41;;;;;;;2.75;2.05;;;;;;;18.68;100.00;97696.41;1224292;75;2926292;-68
2023/07/22 06:53:14;;;;;;;2.20;1.70;;;;;;;18.94;100.00;97704.06;1223560;75;2935970;-68
2023/07/22 06:55:53;;;;;;;2.25;1.80;;;;;;;18.88;100.00;97699.88;1223442;75;2928552;-66
2023/07/22 06:58:27;;;;;;;2.15;1.90;;;;;;;18.82;100.00;97705.53;1223876;75;2922199;-68
2023/07/22 07:01:02;;;;;;;2.75;2.10;;;;;;;18.84;100.00;97713.34;1223669;75;2933206;-68
2023/07/22 07:03:35;;;;;;;3.80;1.90;;;;;;;19.06;100.00;97717.75;1223838;75;2935327;-70
2023/07/22 07:06:07;;;;;;;3.20;2.75;;;;;;;19.01;100.00;97721.38;1224097;75;2921613;-67
2023/07/22 07:08:40;;;;;;;2.95;2.45;;;;;;;19.13;100.00;97725.44;1223927;75;2915352;-69
2023/07/22 07:11:12;;;;;;;2.15;1.95;;;;;;;19.40;100.00;97730.97;1223935;75;2920524;-70
2023/07/22 07:13:45;;;;;;;3.35;2.50;;;;;;;19.16;100.00;97729.91;1223840;75;2924439;-68
2023/07/22 07:16:38;;;;;;;2.40;2.20;;;;;;;19.32;100.00;97722.56;1223803;75;2928408;-67
2023/07/22 07:19:11;;;;;;;2.80;2.50;;;;;;;19.14;100.00;97729.69;1224399;75;2923075;-69
2023/07/22 07:21:43;;;;;;;3.45;3.15;;;;;;;18.84;100.00;97727.22;1224285;75;2934909;-69
2023/07/22 07:24:16;;;;;;;3.45;2.95;;;;;;;18.74;100.00;97729.63;1223781;75;2924116;-68
2023/07/22 07:26:49;;;;;;;3.85;2.80;;;;;;;19.05;100.00;97730.09;1224216;75;2931734;-69
2023/07/22 07:29:21;;;;;;;4.15;2.85;;;;;;;19.12;100.00;97730.25;1224141;75;2922558;-68
2023/07/22 07:31:57;;;;;;;2.80;2.50;;;;;;;19.28;100.00;97733.22;1224407;75;2931150;-72
2023/07/22 07:34:29;;;;;;;2.75;2.25;;;;;;;19.77;100.00;97721.66;1224019;75;2921027;-72
2023/07/22 07:37:02;;;;;;;4.65;3.30;;;;;;;19.58;100.00;97735.69;1223947;75;2927517;-70
2023/07/22 07:39:35;;;;;;;4.35;2.90;;;;;;;19.33;100.00;97732.38;1223139;75;2927527;-70
2023/07/22 07:42:08;;;;;;;3.90;2.65;;;;;;;19.97;100.00;97736.91;1224686;75;2921888;-70
2023/07/22 07:44:41;;;;;;;2.55;2.25;;;;;;;20.16;100.00;97734.72;1224594;75;2920133;-68
2023/07/22 07:47:16;;;;;;;4.80;2.90;;;;;;;20.28;100.00;97731.69;1223888;75;2941530;-71
2023/07/22 07:49:49;;;;;;;3.95;2.70;;;;;;;20.20;100.00;97728.81;1224693;75;2921791;-68
2023/07/22 07:52:22;;;;;;;3.50;2.55;;;;;;;20.19;100.00;97741.25;1224245;75;2919662;-69
2023/07/22 07:54:54;;;;;;;2.85;2.50;;;;;;;20.54;100.00;97742.72;1223163;75;2997979;-69
2023/07/22 07:57:27;;;;;;;3.40;2.60;;;;;;;20.46;100.00;97743.91;1224540;75;2924197;-69
2023/07/22 07:59:59;;;;;;;3.75;2.60;;;;;;;20.74;100.00;97751.63;1224191;75;2937324;-67
2023/07/22 08:02:35;;;;;;;4.20;3.20;;;;;;;20.80;100.00;97755.00;1224735;75;2923235;-71
2023/07/22 08:05:08;;;;;;;3.10;2.55;;;;;;;20.74;100.00;97749.59;1225191;75;2920515;-73
2023/07/22 08:07:41;;;;;;;4.55;3.40;;;;;;;20.80;100.00;97744.63;1223764;75;2919724;-70
2023/07/22 08:10:14;;;;;;;2.80;2.40;;;;;;;21.42;100.00;97751.41;1223427;75;2925798;-70
2023/07/22 08:12:46;;;;;;;3.10;2.75;;;;;;;21.52;100.00;97754.41;1223755;75;2930472;-71
2023/07/22 08:15:19;;;;;;;3.10;2.25;;;;;;;21.74;100.00;97755.09;1221462;75;3028801;-68
2023/07/22 08:17:54;;;;;;;4.55;2.80;;;;;;;21.28;100.00;97755.53;1223678;75;2931281;-71
2023/07/22 08:20:27;;;;;;;3.70;2.75;;;;;;;21.64;100.00;97750.03;1223422;75;2930151;-68
2023/07/22 08:23:00;;;;;;;2.95;2.15;;;;;;;22.25;100.00;97754.41;1223138;75;2964325;-73
2023/07/22 08:25:32;;;;;;;3.15;2.60;;;;;;;21.87;90.19;97754.97;1224480;75;2926074;-69
2023/07/22 08:28:05;;;;;;;3.70;2.50;;;;;;;22.17;98.49;97759.91;1224513;75;2923511;-69
2023/07/22 08:30:39;;;;;;;2.30;1.90;;;;;;;22.45;88.67;97758.34;1198588;75;4871197;-72
2023/07/22 08:33:15;;;;;;;2.90;2.30;;;;;;;22.37;80.12;97766.69;1223950;75;2926141;-69
2023/07/22 08:35:48;;;;;;;2.80;2.35;;;;;;;22.37;77.88;97763.13;1223819;75;2921481;-70
2023/07/22 08:38:21;;;;;;;2.85;2.20;;;;;;;22.96;81.31;97766.56;1225037;75;2923775;-70
2023/07/22 08:40:54;;;;;;;3.55;2.40;;;;;;;22.82;76.44;97761.72;1224351;75;2936942;-69
2023/07/22 08:43:28;;;;;;;4.00;2.35;;;;;;;23.13;78.73;97762.50;1223751;75;2927146;-70
2023/07/22 08:46:04;;;;;;;3.50;2.55;;;;;;;22.92;72.75;97765.44;1223582;75;2938010;-68
2023/07/22 08:48:44;;;;;;;2.85;2.30;;;;;;;23.26;75.91;97755.94;1223603;75;2941998;-68
2023/07/22 08:51:21;;;;;;;2.70;2.20;;;;;;;23.32;71.03;97754.44;1221616;75;2942423;-68
2023/07/22 08:53:56;;;;;;;4.05;2.60;;;;;;;23.23;67.59;97759.88;1224187;75;2921785;-67
2023/07/22 08:56:29;;;;;;;2.80;2.40;;;;;;;23.49;67.53;97762.25;1223928;75;2916870;-71
2023/07/22 08:59:02;;;;;;;6.15;2.55;;;;;;;23.36;68.21;97766.00;1223371;75;2925659;-71
2023/07/22 09:01:37;;;;;;;2.90;2.30;;;;;;;23.48;67.63;97757.22;1223653;75;2937719;-70
2023/07/22 09:04:12;;;;;;;2.85;2.05;;;;;;;23.63;69.79;97768.38;1223621;75;2929710;-68
2023/07/22 09:06:46;;;;;;;3.60;2.55;;;;;;;23.53;67.15;97767.47;1224159;75;2933921;-69
2023/07/22 09:09:19;;;;;;;3.05;2.40;;;;;;;23.42;63.31;97768.59;1223969;75;2922799;-69
2023/07/22 09:11:53;;;;;;;3.05;2.20;;;;;;;23.58;66.36;97780.50;1223952;75;2928221;-69
2023/07/22 09:14:27;;;;;;;2.65;2.00;;;;;;;23.26;64.14;97778.28;1224176;75;2926833;-70
2023/07/22 09:17:00;;;;;;;3.95;2.20;;;;;;;23.25;64.57;97765.66;1223571;75;2946971;-70
2023/07/22 09:19:36;;;;;;;2.65;2.05;;;;;;;23.37;67.67;97777.91;1224014;75;2921840;-71
2023/07/22 09:22:10;;;;;;;1.95;1.70;;;;;;;23.18;68.63;97770.66;1224114;75;2927136;-70
2023/07/22 09:24:43;;;;;;;2.55;1.95;;;;;;;23.53;65.62;97773.06;1224629;75;2919452;-71
2023/07/22 09:27:16;;;;;;;2.30;1.70;;;;;;;23.63;64.44;97776.75;1223880;75;2921016;-69
2023/07/22 09:29:49;;;;;;;4.15;2.20;;;;;;;22.84;67.66;97782.19;1224024;75;2922443;-70
2023/07/22 09:32:39;;;;;;;2.95;2.25;;;;;;;23.28;65.63;97776.44;1222886;75;2928095;-66
2023/07/22 09:35:14;;;;;;;3.35;2.25;;;;;;;23.42;67.71;97776.97;1224203;75;2924082;-70
2023/07/22 09:37:47;;;;;;;3.70;2.30;;;;;;;23.36;69.27;97770.84;1223399;75;2922771;-69
2023/07/22 09:40:23;;;;;;;3.15;2.10;;;;;;;23.31;70.65;97764.16;1223728;75;2924358;-69
2023/07/22 09:42:58;;;;;;;3.00;2.20;;;;;;;23.50;69.50;97757.38;1224292;75;2923796;-68
2023/07/22 09:45:33;;;;;;;2.50;1.80;;;;;;;24.14;69.66;97758.13;1223728;75;2923694;-67
2023/07/22 09:48:06;;;;;;;2.80;1.85;;;;;;;23.98;65.69;97761.00;1223775;75;2924844;-70
2023/07/22 09:50:41;;;;;;;2.50;1.80;;;;;;;24.19;65.28;97757.91;1223437;75;2929357;-68
2023/07/22 09:53:19;;;;;;;1.50;1.35;;;;;;;24.91;71.39;97758.41;1224228;75;2923471;-69
2023/07/22 09:55:55;;;;;;;2.00;1.75;;;;;;;24.53;65.64;97755.88;1224381;75;2926688;-69
2023/07/22 09:58:33;;;;;;;3.35;2.50;;;;;;;24.18;65.36;97759.22;1223548;75;2926016;-70
2023/07/22 10:01:07;;;;;;;5.00;2.40;;;;;;;24.21;65.49;97758.09;1224271;75;2925250;-71
2023/07/22 10:03:43;;;;;;;4.10;2.20;;;;;;;24.89;64.43;97749.81;1223824;75;2924185;-67
2023/07/22 10:06:19;;;;;;;2.10;1.90;;;;;;;25.05;66.52;97747.66;1224058;75;2922794;-68
2023/07/22 10:08:52;;;;;;;2.65;2.25;;;;;;;24.72;62.40;97747.72;1223945;75;2926359;-67
2023/07/22 10:11:29;;;;;;;3.45;2.15;;;;;;;25.32;60.65;97745.00;1223588;75;2925399;-67
2023/07/22 10:14:04;;;;;;;3.10;1.95;;;;;;;25.47;60.97;97741.28;1224609;75;2924812;-70
2023/07/22 10:16:37;;;;;;;2.20;1.80;;;;;;;26.40;61.97;97733.25;1223863;75;2931252;-68
2023/07/22 10:19:12;;;;;;;2.55;1.70;;;;;;;25.85;61.47;97738.03;1223723;75;2935117;-68
2023/07/22 10:21:48;;;;;;;3.15;2.45;;;;;;;25.99;60.23;97740.53;1223808;75;2955947;-68
2023/07/22 10:24:21;;;;;;;3.50;2.20;;;;;;;26.00;58.25;97733.59;1222275;75;2990577;-70
2023/07/22 10:26:55;;;;;;;2.70;1.80;;;;;;;27.01;58.73;97731.56;1224034;75;2929022;-70
2023/07/22 10:29:28;;;;;;;1.60;1.40;;;;;;;27.10;54.86;97730.84;1223939;75;2934532;-65
2023/07/22 10:32:02;;;;;;;2.40;2.05;;;;;;;26.14;54.14;97729.88;1223754;75;2927654;-68
2023/07/22 10:34:35;;;;;;;4.00;2.50;;;;;;;25.57;56.50;97730.91;1223600;75;2930699;-69
2023/07/22 10:37:13;;;;;;;2.60;1.85;;;;;;;26.07;56.99;97732.75;1223969;75;2926085;-66
2023/07/22 10:39:46;;;;;;;3.85;2.35;;;;;;;25.83;56.53;97726.69;1224156;75;2925879;-69
2023/07/22 10:42:29;;;;;;;1.80;1.60;;;;;;;26.83;57.54;97721.75;1224356;75;2922031;-68
2023/07/22 10:45:04;;;;;;;2.55;1.80;;;;;;;26.63;55.03;97721.69;1224279;75;2927379;-70
2023/07/22 10:47:39;;;;;;;2.90;2.35;;;;;;;26.13;58.24;97710.81;1223809;75;2931632;-69
2023/07/22 10:50:12;;;;;;;2.45;1.75;;;;;;;26.98;54.85;97715.88;1223786;75;2935874;-68
2023/07/22 10:52:49;;;;;;;4.80;2.05;;;;;;;26.11;55.19;97708.56;1223789;75;2925540;-70
2023/07/22 10:55:22;;;;;;;2.15;1.90;;;;;;;26.30;53.95;97719.16;1224217;75;2921853;-67
2023/07/22 10:57:57;;;;;;;3.60;2.20;;;;;;;26.79;55.99;97713.75;1223771;75;2924931;-69
2023/07/22 11:00:33;;;;;;;3.70;2.10;;;;;;;26.67;54.63;97707.94;1223675;75;2924814;-67
2023/07/22 11:03:18;;;;;;;3.25;2.35;;;;;;;26.28;54.71;97715.44;1223793;75;2922548;-69
2023/07/22 11:05:56;;;;;;;2.70;2.10;;;;;;;26.45;54.23;97718.19;1223419;75;2924532;-68
2023/07/22 11:08:44;;;;;;;2.90;2.20;;;;;;;26.54;53.77;97709.09;1223855;75;2935637;-68
2023/07/22 11:11:17;;;;;;;3.15;2.35;;;;;;;25.98;52.27;97708.94;1223309;75;2923040;-69
2023/07/22 11:13:49;;;;;;;3.00;2.10;;;;;;;26.60;54.70;97703.19;1223227;75;2930933;-69
2023/07/22 11:16:23;;;;;;;2.65;1.80;;;;;;;27.09;52.40;97711.78;1223695;75;2929533;-69
2023/07/22 11:18:56;;;;;;;3.00;2.30;;;;;;;26.00;55.13;97703.50;1222570;75;2921856;-67
2023/07/22 11:21:28;;;;;;;3.15;1.95;;;;;;;25.99;55.50;97709.69;1224250;75;2925908;-68
2023/07/22 11:24:06;;;;;;;3.70;2.35;;;;;;;26.18;54.57;97704.19;1223595;75;2934580;-66
2023/07/22 11:26:40;;;;;;;2.80;2.30;;;;;;;26.11;54.91;97702.97;1223686;75;2950594;-67
2023/07/22 11:29:13;;;;;;;3.50;2.65;;;;;;;26.53;54.00;97698.41;1223846;75;2922193;-70
2023/07/22 11:31:48;;;;;;;2.65;2.30;;;;;;;26.47;52.86;97695.16;1224035;75;2926382;-67
2023/07/22 11:34:23;;;;;;;4.25;2.35;;;;;;;26.67;51.35;97687.56;1224148;75;2920737;-68
2023/07/22 11:36:58;;;;;;;3.45;2.50;;;;;;;27.23;52.08;97684.75;1224218;75;2927181;-69
2023/07/22 11:39:34;;;;;;;2.65;2.00;;;;;;;27.15;50.15;97675.69;1224598;75;2920389;-66
2023/07/22 11:42:08;;;;;;;2.90;2.25;;;;;;;26.77;51.81;97675.03;1223654;75;2931485;-67